sensor_id;sensor_type;location;lat;lon;timestamp;P1;durP1;ratioP1;P2;durP2;ratioP2
10303;SDS011;5197;48.152;8.590;2023-11-19T00:00:32;8.50;;;7.63;;
10303;SDS011;5197;48.152;8.590;2023-11-19T00:02:59;8.13;;;6.93;;
10303;SDS011;5197;48.152;8.590;2023-11-19T00:05:27;8.13;;;6.80;;
10303;SDS011;5197;48.152;8.590;2023-11-19T00:07:55;7.70;;;6.90;;
10303;SDS011;5197;48.152;8.590;2023-11-19T00:10:22;8.47;;;7.67;;
10303;SDS011;5197;48.152;8.590;2023-11-19T00:12:49;7.80;;;7.00;;
10303;SDS011;5197;48.152;8.590;2023-11-19T00:15:17;7.97;;;7.13;;
10303;SDS011;5197;48.152;8.590;2023-11-19T00:17:46;9.30;;;6.10;;
10303;SDS011;5197;48.152;8.590;2023-11-19T00:20:15;9.03;;;6.87;;
10303;SDS011;5197;48.152;8.590;2023-11-19T00:22:46;8.93;;;7.10;;
10303;SDS011;5197;48.152;8.590;2023-11-19T00:25:16;7.37;;;6.53;;
10303;SDS011;5197;48.152;8.590;2023-11-19T00:27:44;7.57;;;6.83;;
10303;SDS011;5197;48.152;8.590;2023-11-19T00:30:11;7.20;;;6.43;;
10303;SDS011;5197;48.152;8.590;2023-11-19T00:32:40;8.20;;;6.17;;
10303;SDS011;5197;48.152;8.590;2023-11-19T00:35:08;8.20;;;7.40;;
10303;SDS011;5197;48.152;8.590;2023-11-19T00:37:36;8.83;;;7.50;;
10303;SDS011;5197;48.152;8.590;2023-11-19T00:40:04;7.77;;;6.97;;
10303;SDS011;5197;48.152;8.590;2023-11-19T00:42:32;7.60;;;6.70;;
10303;SDS011;5197;48.152;8.590;2023-11-19T00:44:59;8.30;;;7.17;;
10303;SDS011;5197;48.152;8.590;2023-11-19T00:47:28;9.00;;;7.70;;
10303;SDS011;5197;48.152;8.590;2023-11-19T00:49:55;7.80;;;5.83;;
10303;SDS011;5197;48.152;8.590;2023-11-19T00:52:22;8.50;;;6.73;;
10303;SDS011;5197;48.152;8.590;2023-11-19T00:54:49;7.27;;;6.57;;
10303;SDS011;5197;48.152;8.590;2023-11-19T00:57:16;10.70;;;7.03;;
10303;SDS011;5197;48.152;8.590;2023-11-19T00:59:43;7.00;;;6.30;;
10303;SDS011;5197;48.152;8.590;2023-11-19T01:02:10;7.23;;;6.20;;
10303;SDS011;5197;48.152;8.590;2023-11-19T01:04:38;7.73;;;6.93;;
10303;SDS011;5197;48.152;8.590;2023-11-19T01:07:05;8.30;;;6.37;;
10303;SDS011;5197;48.152;8.590;2023-11-19T01:09:32;7.90;;;6.37;;
10303;SDS011;5197;48.152;8.590;2023-11-19T01:12:02;7.27;;;6.57;;
10303;SDS011;5197;48.152;8.590;2023-11-19T01:14:29;6.83;;;6.13;;
10303;SDS011;5197;48.152;8.590;2023-11-19T01:16:57;8.47;;;6.33;;
10303;SDS011;5197;48.152;8.590;2023-11-19T01:19:24;8.47;;;6.17;;
10303;SDS011;5197;48.152;8.590;2023-11-19T01:21:51;7.53;;;6.30;;
10303;SDS011;5197;48.152;8.590;2023-11-19T01:24:19;9.10;;;6.60;;
10303;SDS011;5197;48.152;8.590;2023-11-19T01:26:46;7.27;;;6.23;;
10303;SDS011;5197;48.152;8.590;2023-11-19T01:29:16;8.57;;;5.83;;
10303;SDS011;5197;48.152;8.590;2023-11-19T01:31:43;7.23;;;5.60;;
10303;SDS011;5197;48.152;8.590;2023-11-19T01:34:12;6.73;;;6.03;;
10303;SDS011;5197;48.152;8.590;2023-11-19T01:36:39;6.03;;;5.43;;
10303;SDS011;5197;48.152;8.590;2023-11-19T01:39:06;6.80;;;6.00;;
10303;SDS011;5197;48.152;8.590;2023-11-19T01:41:34;7.67;;;6.13;;
10303;SDS011;5197;48.152;8.590;2023-11-19T01:44:02;7.53;;;5.50;;
10303;SDS011;5197;48.152;8.590;2023-11-19T01:46:30;6.47;;;5.17;;
10303;SDS011;5197;48.152;8.590;2023-11-19T01:48:59;8.27;;;5.97;;
10303;SDS011;5197;48.152;8.590;2023-11-19T01:51:27;6.63;;;5.57;;
10303;SDS011;5197;48.152;8.590;2023-11-19T01:53:55;6.43;;;5.47;;
10303;SDS011;5197;48.152;8.590;2023-11-19T01:56:26;6.13;;;5.53;;
10303;SDS011;5197;48.152;8.590;2023-11-19T01:58:54;6.77;;;5.87;;
10303;SDS011;5197;48.152;8.590;2023-11-19T02:01:22;7.07;;;5.20;;
10303;SDS011;5197;48.152;8.590;2023-11-19T02:03:50;5.93;;;5.33;;
10303;SDS011;5197;48.152;8.590;2023-11-19T02:06:18;6.83;;;5.00;;
10303;SDS011;5197;48.152;8.590;2023-11-19T02:08:45;7.60;;;4.83;;
10303;SDS011;5197;48.152;8.590;2023-11-19T02:11:12;6.20;;;4.37;;
10303;SDS011;5197;48.152;8.590;2023-11-19T02:13:39;5.70;;;4.50;;
10303;SDS011;5197;48.152;8.590;2023-11-19T02:16:08;4.93;;;4.33;;
10303;SDS011;5197;48.152;8.590;2023-11-19T02:18:36;5.00;;;4.57;;
10303;SDS011;5197;48.152;8.590;2023-11-19T02:21:03;6.57;;;3.80;;
10303;SDS011;5197;48.152;8.590;2023-11-19T02:23:31;5.73;;;4.13;;
10303;SDS011;5197;48.152;8.590;2023-11-19T02:28:29;3.57;;;3.30;;
10303;SDS011;5197;48.152;8.590;2023-11-19T02:30:56;3.40;;;2.80;;
10303;SDS011;5197;48.152;8.590;2023-11-19T02:33:23;3.10;;;2.80;;
10303;SDS011;5197;48.152;8.590;2023-11-19T02:35:51;5.40;;;2.77;;
10303;SDS011;5197;48.152;8.590;2023-11-19T02:38:18;2.60;;;2.40;;
10303;SDS011;5197;48.152;8.590;2023-11-19T02:40:45;2.80;;;2.43;;
10303;SDS011;5197;48.152;8.590;2023-11-19T02:43:12;2.10;;;1.97;;
10303;SDS011;5197;48.152;8.590;2023-11-19T02:45:39;2.30;;;2.10;;
10303;SDS011;5197;48.152;8.590;2023-11-19T02:48:06;2.47;;;2.27;;
10303;SDS011;5197;48.152;8.590;2023-11-19T02:50:33;2.73;;;2.00;;
10303;SDS011;5197;48.152;8.590;2023-11-19T02:53:00;2.10;;;2.00;;
10303;SDS011;5197;48.152;8.590;2023-11-19T02:55:28;1.83;;;1.73;;
10303;SDS011;5197;48.152;8.590;2023-11-19T02:58:00;1.80;;;1.70;;
10303;SDS011;5197;48.152;8.590;2023-11-19T03:00:31;1.90;;;1.70;;
10303;SDS011;5197;48.152;8.590;2023-11-19T03:03:02;1.60;;;1.50;;
10303;SDS011;5197;48.152;8.590;2023-11-19T03:05:49;1.63;;;1.50;;
10303;SDS011;5197;48.152;8.590;2023-11-19T03:08:16;2.00;;;1.70;;
10303;SDS011;5197;48.152;8.590;2023-11-19T03:10:46;1.60;;;1.50;;
10303;SDS011;5197;48.152;8.590;2023-11-19T03:13:13;2.17;;;1.97;;
10303;SDS011;5197;48.152;8.590;2023-11-19T03:15:41;2.20;;;1.60;;
10303;SDS011;5197;48.152;8.590;2023-11-19T03:18:08;1.70;;;1.60;;
10303;SDS011;5197;48.152;8.590;2023-11-19T03:20:35;1.43;;;1.33;;
10303;SDS011;5197;48.152;8.590;2023-11-19T03:23:02;1.57;;;1.47;;
10303;SDS011;5197;48.152;8.590;2023-11-19T03:25:29;1.90;;;1.20;;
10303;SDS011;5197;48.152;8.590;2023-11-19T03:28:00;1.27;;;1.10;;
10303;SDS011;5197;48.152;8.590;2023-11-19T03:30:29;1.70;;;1.40;;
10303;SDS011;5197;48.152;8.590;2023-11-19T03:33:00;1.30;;;1.20;;
10303;SDS011;5197;48.152;8.590;2023-11-19T03:35:28;1.50;;;1.40;;
10303;SDS011;5197;48.152;8.590;2023-11-19T03:37:56;1.70;;;1.60;;
10303;SDS011;5197;48.152;8.590;2023-11-19T03:40:23;1.23;;;1.23;;
10303;SDS011;5197;48.152;8.590;2023-11-19T03:42:51;1.00;;;1.00;;
10303;SDS011;5197;48.152;8.590;2023-11-19T03:45:19;0.93;;;0.80;;
10303;SDS011;5197;48.152;8.590;2023-11-19T03:47:46;0.80;;;0.80;;
10303;SDS011;5197;48.152;8.590;2023-11-19T03:50:13;1.30;;;1.20;;
10303;SDS011;5197;48.152;8.590;2023-11-19T03:52:42;1.43;;;1.33;;
10303;SDS011;5197;48.152;8.590;2023-11-19T03:55:10;1.07;;;1.07;;
10303;SDS011;5197;48.152;8.590;2023-11-19T03:57:39;2.53;;;0.90;;
10303;SDS011;5197;48.152;8.590;2023-11-19T04:00:06;1.30;;;1.30;;
10303;SDS011;5197;48.152;8.590;2023-11-19T04:02:37;1.37;;;1.27;;
10303;SDS011;5197;48.152;8.590;2023-11-19T04:05:04;0.67;;;0.67;;
10303;SDS011;5197;48.152;8.590;2023-11-19T04:07:33;0.80;;;0.80;;
10303;SDS011;5197;48.152;8.590;2023-11-19T04:10:00;1.10;;;1.10;;
10303;SDS011;5197;48.152;8.590;2023-11-19T04:12:28;1.00;;;1.00;;
10303;SDS011;5197;48.152;8.590;2023-11-19T04:14:55;0.90;;;0.90;;
10303;SDS011;5197;48.152;8.590;2023-11-19T04:17:25;0.70;;;0.70;;
10303;SDS011;5197;48.152;8.590;2023-11-19T04:19:52;0.80;;;0.80;;
10303;SDS011;5197;48.152;8.590;2023-11-19T04:22:19;0.80;;;0.80;;
10303;SDS011;5197;48.152;8.590;2023-11-19T04:24:47;0.80;;;0.80;;
10303;SDS011;5197;48.152;8.590;2023-11-19T04:27:14;0.60;;;0.60;;
10303;SDS011;5197;48.152;8.590;2023-11-19T04:29:41;0.60;;;0.60;;
10303;SDS011;5197;48.152;8.590;2023-11-19T04:32:08;1.77;;;0.90;;
10303;SDS011;5197;48.152;8.590;2023-11-19T04:34:35;0.77;;;0.77;;
10303;SDS011;5197;48.152;8.590;2023-11-19T04:37:04;0.60;;;0.60;;
10303;SDS011;5197;48.152;8.590;2023-11-19T04:39:34;0.50;;;0.50;;
10303;SDS011;5197;48.152;8.590;2023-11-19T04:42:01;1.30;;;0.30;;
10303;SDS011;5197;48.152;8.590;2023-11-19T04:44:29;0.70;;;0.70;;
10303;SDS011;5197;48.152;8.590;2023-11-19T04:46:56;0.70;;;0.70;;
10303;SDS011;5197;48.152;8.590;2023-11-19T04:49:24;0.87;;;0.73;;
10303;SDS011;5197;48.152;8.590;2023-11-19T04:51:53;0.60;;;0.60;;
10303;SDS011;5197;48.152;8.590;2023-11-19T04:54:21;0.40;;;0.40;;
10303;SDS011;5197;48.152;8.590;2023-11-19T04:56:48;1.93;;;0.60;;
10303;SDS011;5197;48.152;8.590;2023-11-19T04:59:15;1.50;;;1.07;;
10303;SDS011;5197;48.152;8.590;2023-11-19T05:01:46;1.50;;;0.80;;
10303;SDS011;5197;48.152;8.590;2023-11-19T05:04:14;0.70;;;0.70;;
10303;SDS011;5197;48.152;8.590;2023-11-19T05:06:42;0.60;;;0.60;;
10303;SDS011;5197;48.152;8.590;2023-11-19T05:09:09;0.93;;;0.80;;
10303;SDS011;5197;48.152;8.590;2023-11-19T05:11:39;1.07;;;0.70;;
10303;SDS011;5197;48.152;8.590;2023-11-19T05:14:09;0.50;;;0.50;;
10303;SDS011;5197;48.152;8.590;2023-11-19T05:16:39;1.10;;;0.67;;
10303;SDS011;5197;48.152;8.590;2023-11-19T05:19:07;0.50;;;0.50;;
10303;SDS011;5197;48.152;8.590;2023-11-19T05:21:35;1.10;;;1.00;;
10303;SDS011;5197;48.152;8.590;2023-11-19T05:24:02;0.70;;;0.70;;
10303;SDS011;5197;48.152;8.590;2023-11-19T05:26:33;0.67;;;0.67;;
10303;SDS011;5197;48.152;8.590;2023-11-19T05:29:00;1.30;;;0.63;;
10303;SDS011;5197;48.152;8.590;2023-11-19T05:31:27;0.67;;;0.63;;
10303;SDS011;5197;48.152;8.590;2023-11-19T05:33:54;0.50;;;0.50;;
10303;SDS011;5197;48.152;8.590;2023-11-19T05:36:21;1.07;;;0.70;;
10303;SDS011;5197;48.152;8.590;2023-11-19T05:38:49;0.70;;;0.70;;
10303;SDS011;5197;48.152;8.590;2023-11-19T05:41:16;0.70;;;0.60;;
10303;SDS011;5197;48.152;8.590;2023-11-19T05:43:43;0.40;;;0.40;;
10303;SDS011;5197;48.152;8.590;2023-11-19T05:46:10;1.23;;;0.70;;
10303;SDS011;5197;48.152;8.590;2023-11-19T05:48:42;1.00;;;1.00;;
10303;SDS011;5197;48.152;8.590;2023-11-19T05:51:10;1.43;;;0.77;;
10303;SDS011;5197;48.152;8.590;2023-11-19T05:53:37;1.13;;;0.77;;
10303;SDS011;5197;48.152;8.590;2023-11-19T05:56:04;2.00;;;1.03;;
10303;SDS011;5197;48.152;8.590;2023-11-19T05:58:31;1.30;;;1.30;;
10303;SDS011;5197;48.152;8.590;2023-11-19T06:00:59;1.47;;;1.43;;
10303;SDS011;5197;48.152;8.590;2023-11-19T06:03:29;1.10;;;1.00;;
10303;SDS011;5197;48.152;8.590;2023-11-19T06:05:57;1.27;;;0.90;;
10303;SDS011;5197;48.152;8.590;2023-11-19T06:08:24;1.03;;;0.90;;
10303;SDS011;5197;48.152;8.590;2023-11-19T06:10:53;0.90;;;0.90;;
10303;SDS011;5197;48.152;8.590;2023-11-19T06:13:20;0.63;;;0.63;;
10303;SDS011;5197;48.152;8.590;2023-11-19T06:15:51;0.80;;;0.80;;
10303;SDS011;5197;48.152;8.590;2023-11-19T06:18:18;0.50;;;0.50;;
10303;SDS011;5197;48.152;8.590;2023-11-19T06:20:47;0.33;;;0.33;;
10303;SDS011;5197;48.152;8.590;2023-11-19T06:23:14;0.50;;;0.50;;
10303;SDS011;5197;48.152;8.590;2023-11-19T06:25:41;0.47;;;0.47;;
10303;SDS011;5197;48.152;8.590;2023-11-19T06:28:08;0.20;;;0.20;;
10303;SDS011;5197;48.152;8.590;2023-11-19T06:30:36;0.93;;;0.40;;
10303;SDS011;5197;48.152;8.590;2023-11-19T06:33:03;0.60;;;0.57;;
10303;SDS011;5197;48.152;8.590;2023-11-19T06:35:31;0.50;;;0.50;;
10303;SDS011;5197;48.152;8.590;2023-11-19T06:38:03;0.20;;;0.20;;
10303;SDS011;5197;48.152;8.590;2023-11-19T06:40:31;0.30;;;0.30;;
10303;SDS011;5197;48.152;8.590;2023-11-19T06:43:02;1.53;;;0.57;;
10303;SDS011;5197;48.152;8.590;2023-11-19T06:45:30;0.60;;;0.60;;
10303;SDS011;5197;48.152;8.590;2023-11-19T06:47:57;0.30;;;0.30;;
10303;SDS011;5197;48.152;8.590;2023-11-19T06:50:27;0.40;;;0.40;;
10303;SDS011;5197;48.152;8.590;2023-11-19T06:52:55;0.40;;;0.40;;
10303;SDS011;5197;48.152;8.590;2023-11-19T06:55:22;0.37;;;0.37;;
10303;SDS011;5197;48.152;8.590;2023-11-19T06:57:49;0.80;;;0.80;;
10303;SDS011;5197;48.152;8.590;2023-11-19T07:00:16;0.77;;;0.77;;
10303;SDS011;5197;48.152;8.590;2023-11-19T07:02:44;0.87;;;0.87;;
10303;SDS011;5197;48.152;8.590;2023-11-19T07:05:11;1.93;;;0.80;;
10303;SDS011;5197;48.152;8.590;2023-11-19T07:07:40;0.80;;;0.80;;
10303;SDS011;5197;48.152;8.590;2023-11-19T07:10:07;1.73;;;0.80;;
10303;SDS011;5197;48.152;8.590;2023-11-19T07:12:36;1.00;;;0.90;;
10303;SDS011;5197;48.152;8.590;2023-11-19T07:15:03;1.47;;;1.37;;
10303;SDS011;5197;48.152;8.590;2023-11-19T07:17:31;2.20;;;2.00;;
10303;SDS011;5197;48.152;8.590;2023-11-19T07:19:59;3.70;;;3.00;;
10303;SDS011;5197;48.152;8.590;2023-11-19T07:22:26;4.27;;;3.50;;
10303;SDS011;5197;48.152;8.590;2023-11-19T07:24:56;2.73;;;2.53;;
10303;SDS011;5197;48.152;8.590;2023-11-19T07:27:23;3.63;;;2.70;;
10303;SDS011;5197;48.152;8.590;2023-11-19T07:29:51;1.03;;;1.00;;
10303;SDS011;5197;48.152;8.590;2023-11-19T07:32:18;2.07;;;1.53;;
10303;SDS011;5197;48.152;8.590;2023-11-19T07:34:46;1.60;;;0.80;;
10303;SDS011;5197;48.152;8.590;2023-11-19T07:37:13;1.00;;;0.60;;
10303;SDS011;5197;48.152;8.590;2023-11-19T07:39:40;0.70;;;0.70;;
10303;SDS011;5197;48.152;8.590;2023-11-19T07:42:08;1.73;;;0.77;;
10303;SDS011;5197;48.152;8.590;2023-11-19T07:44:36;0.70;;;0.70;;
10303;SDS011;5197;48.152;8.590;2023-11-19T07:47:03;1.03;;;0.93;;
10303;SDS011;5197;48.152;8.590;2023-11-19T07:49:31;1.80;;;1.40;;
10303;SDS011;5197;48.152;8.590;2023-11-19T07:51:59;1.13;;;0.70;;
10303;SDS011;5197;48.152;8.590;2023-11-19T07:54:26;2.70;;;2.40;;
10303;SDS011;5197;48.152;8.590;2023-11-19T07:56:54;1.83;;;1.73;;
10303;SDS011;5197;48.152;8.590;2023-11-19T07:59:28;1.83;;;1.70;;
10303;SDS011;5197;48.152;8.590;2023-11-19T08:01:55;3.10;;;1.60;;
10303;SDS011;5197;48.152;8.590;2023-11-19T08:04:22;1.00;;;1.00;;
10303;SDS011;5197;48.152;8.590;2023-11-19T08:06:49;0.90;;;0.90;;
10303;SDS011;5197;48.152;8.590;2023-11-19T08:09:16;0.80;;;0.80;;
10303;SDS011;5197;48.152;8.590;2023-11-19T08:11:44;1.70;;;1.60;;
10303;SDS011;5197;48.152;8.590;2023-11-19T08:14:12;1.50;;;1.40;;
10303;SDS011;5197;48.152;8.590;2023-11-19T08:16:39;2.43;;;1.90;;
10303;SDS011;5197;48.152;8.590;2023-11-19T08:19:06;2.37;;;2.17;;
10303;SDS011;5197;48.152;8.590;2023-11-19T08:21:35;1.63;;;1.40;;
10303;SDS011;5197;48.152;8.590;2023-11-19T08:24:02;2.80;;;1.63;;
10303;SDS011;5197;48.152;8.590;2023-11-19T08:26:29;2.60;;;2.40;;
10303;SDS011;5197;48.152;8.590;2023-11-19T08:28:56;2.87;;;2.40;;
10303;SDS011;5197;48.152;8.590;2023-11-19T08:31:24;2.13;;;2.03;;
10303;SDS011;5197;48.152;8.590;2023-11-19T08:33:52;1.27;;;0.87;;
10303;SDS011;5197;48.152;8.590;2023-11-19T08:36:19;1.43;;;1.33;;
10303;SDS011;5197;48.152;8.590;2023-11-19T08:38:46;0.83;;;0.83;;
10303;SDS011;5197;48.152;8.590;2023-11-19T08:41:15;1.47;;;1.47;;
10303;SDS011;5197;48.152;8.590;2023-11-19T08:43:44;1.97;;;1.87;;
10303;SDS011;5197;48.152;8.590;2023-11-19T08:46:12;1.60;;;1.60;;
10303;SDS011;5197;48.152;8.590;2023-11-19T08:48:39;2.93;;;2.73;;
10303;SDS011;5197;48.152;8.590;2023-11-19T08:51:06;9.60;;;7.63;;
10303;SDS011;5197;48.152;8.590;2023-11-19T08:53:34;3.27;;;2.97;;
10303;SDS011;5197;48.152;8.590;2023-11-19T08:56:01;4.57;;;3.97;;
10303;SDS011;5197;48.152;8.590;2023-11-19T08:58:30;4.87;;;3.87;;
10303;SDS011;5197;48.152;8.590;2023-11-19T09:00:58;4.03;;;3.60;;
10303;SDS011;5197;48.152;8.590;2023-11-19T09:03:25;3.67;;;3.37;;
10303;SDS011;5197;48.152;8.590;2023-11-19T09:05:57;5.47;;;4.37;;
10303;SDS011;5197;48.152;8.590;2023-11-19T09:08:24;3.97;;;3.30;;
10303;SDS011;5197;48.152;8.590;2023-11-19T09:10:51;3.33;;;2.10;;
10303;SDS011;5197;48.152;8.590;2023-11-19T09:13:18;4.37;;;3.60;;
10303;SDS011;5197;48.152;8.590;2023-11-19T09:15:45;4.67;;;3.20;;
10303;SDS011;5197;48.152;8.590;2023-11-19T09:18:12;3.63;;;3.17;;
10303;SDS011;5197;48.152;8.590;2023-11-19T09:20:39;6.60;;;3.50;;
10303;SDS011;5197;48.152;8.590;2023-11-19T09:23:07;2.83;;;2.47;;
10303;SDS011;5197;48.152;8.590;2023-11-19T09:25:36;1.80;;;1.70;;
10303;SDS011;5197;48.152;8.590;2023-11-19T09:28:05;1.60;;;1.50;;
10303;SDS011;5197;48.152;8.590;2023-11-19T09:30:35;2.43;;;1.70;;
10303;SDS011;5197;48.152;8.590;2023-11-19T09:33:02;2.20;;;2.10;;
10303;SDS011;5197;48.152;8.590;2023-11-19T09:35:29;2.53;;;2.03;;
10303;SDS011;5197;48.152;8.590;2023-11-19T09:37:57;0.90;;;0.90;;
10303;SDS011;5197;48.152;8.590;2023-11-19T09:40:26;2.67;;;1.00;;
10303;SDS011;5197;48.152;8.590;2023-11-19T09:42:55;3.10;;;1.00;;
10303;SDS011;5197;48.152;8.590;2023-11-19T09:45:22;0.90;;;0.90;;
10303;SDS011;5197;48.152;8.590;2023-11-19T09:47:54;2.70;;;1.50;;
10303;SDS011;5197;48.152;8.590;2023-11-19T09:50:24;1.60;;;1.43;;
10303;SDS011;5197;48.152;8.590;2023-11-19T09:52:52;1.80;;;1.70;;
10303;SDS011;5197;48.152;8.590;2023-11-19T09:55:19;1.70;;;1.60;;
10303;SDS011;5197;48.152;8.590;2023-11-19T09:57:47;1.40;;;1.30;;
10303;SDS011;5197;48.152;8.590;2023-11-19T10:00:24;1.13;;;0.90;;
10303;SDS011;5197;48.152;8.590;2023-11-19T10:02:54;4.83;;;2.83;;
10303;SDS011;5197;48.152;8.590;2023-11-19T10:05:25;1.93;;;1.83;;
10303;SDS011;5197;48.152;8.590;2023-11-19T10:07:53;2.70;;;2.30;;
10303;SDS011;5197;48.152;8.590;2023-11-19T10:10:25;4.30;;;2.60;;
10303;SDS011;5197;48.152;8.590;2023-11-19T10:12:52;1.77;;;1.67;;
10303;SDS011;5197;48.152;8.590;2023-11-19T10:15:24;2.60;;;2.40;;
10303;SDS011;5197;48.152;8.590;2023-11-19T10:18:03;3.37;;;2.73;;
10303;SDS011;5197;48.152;8.590;2023-11-19T10:20:42;3.40;;;2.70;;
10303;SDS011;5197;48.152;8.590;2023-11-19T10:23:12;1.30;;;1.20;;
10303;SDS011;5197;48.152;8.590;2023-11-19T10:25:43;0.60;;;0.60;;
10303;SDS011;5197;48.152;8.590;2023-11-19T10:28:11;0.50;;;0.50;;
10303;SDS011;5197;48.152;8.590;2023-11-19T10:30:39;0.83;;;0.53;;
10303;SDS011;5197;48.152;8.590;2023-11-19T10:33:12;0.50;;;0.50;;
10303;SDS011;5197;48.152;8.590;2023-11-19T10:35:53;0.97;;;0.40;;
10303;SDS011;5197;48.152;8.590;2023-11-19T10:38:25;1.07;;;0.50;;
10303;SDS011;5197;48.152;8.590;2023-11-19T10:40:54;0.30;;;0.30;;
10303;SDS011;5197;48.152;8.590;2023-11-19T10:43:22;0.33;;;0.30;;
10303;SDS011;5197;48.152;8.590;2023-11-19T10:45:51;0.63;;;0.40;;
10303;SDS011;5197;48.152;8.590;2023-11-19T10:48:20;0.33;;;0.33;;
10303;SDS011;5197;48.152;8.590;2023-11-19T10:50:49;0.50;;;0.50;;
10303;SDS011;5197;48.152;8.590;2023-11-19T10:53:26;0.70;;;0.70;;
10303;SDS011;5197;48.152;8.590;2023-11-19T10:55:59;1.20;;;1.10;;
10303;SDS011;5197;48.152;8.590;2023-11-19T10:58:28;1.87;;;1.40;;
10303;SDS011;5197;48.152;8.590;2023-11-19T11:01:01;0.50;;;0.43;;
10303;SDS011;5197;48.152;8.590;2023-11-19T11:03:50;0.83;;;0.83;;
10303;SDS011;5197;48.152;8.590;2023-11-19T11:06:21;6.13;;;0.73;;
10303;SDS011;5197;48.152;8.590;2023-11-19T11:08:49;0.20;;;0.20;;
10303;SDS011;5197;48.152;8.590;2023-11-19T11:11:18;0.30;;;0.23;;
10303;SDS011;5197;48.152;8.590;2023-11-19T11:13:47;0.20;;;0.20;;
10303;SDS011;5197;48.152;8.590;2023-11-19T11:16:18;0.30;;;0.30;;
10303;SDS011;5197;48.152;8.590;2023-11-19T11:18:46;0.30;;;0.30;;
10303;SDS011;5197;48.152;8.590;2023-11-19T11:21:17;0.23;;;0.23;;
10303;SDS011;5197;48.152;8.590;2023-11-19T11:26:35;0.10;;;0.10;;
10303;SDS011;5197;48.152;8.590;2023-11-19T11:38:06;0.87;;;0.40;;
10303;SDS011;5197;48.152;8.590;2023-11-19T11:40:34;1.23;;;0.33;;
10303;SDS011;5197;48.152;8.590;2023-11-19T11:43:02;1.03;;;0.50;;
10303;SDS011;5197;48.152;8.590;2023-11-19T11:45:35;1.33;;;0.50;;
10303;SDS011;5197;48.152;8.590;2023-11-19T11:48:06;0.97;;;0.83;;
10303;SDS011;5197;48.152;8.590;2023-11-19T11:50:47;1.60;;;0.70;;
10303;SDS011;5197;48.152;8.590;2023-11-19T11:55:55;0.30;;;0.30;;
10303;SDS011;5197;48.152;8.590;2023-11-19T11:58:30;0.53;;;0.50;;
10303;SDS011;5197;48.152;8.590;2023-11-19T12:03:58;0.37;;;0.37;;
10303;SDS011;5197;48.152;8.590;2023-11-19T12:06:26;1.60;;;0.90;;
10303;SDS011;5197;48.152;8.590;2023-11-19T12:08:59;0.40;;;0.23;;
10303;SDS011;5197;48.152;8.590;2023-11-19T12:11:26;1.70;;;0.70;;
10303;SDS011;5197;48.152;8.590;2023-11-19T12:13:57;0.30;;;0.30;;
10303;SDS011;5197;48.152;8.590;2023-11-19T12:16:28;0.63;;;0.30;;
10303;SDS011;5197;48.152;8.590;2023-11-19T12:18:57;0.37;;;0.37;;
10303;SDS011;5197;48.152;8.590;2023-11-19T12:21:32;3.40;;;0.40;;
10303;SDS011;5197;48.152;8.590;2023-11-19T12:23:59;0.20;;;0.20;;
10303;SDS011;5197;48.152;8.590;2023-11-19T12:26:36;0.30;;;0.30;;
10303;SDS011;5197;48.152;8.590;2023-11-19T12:29:07;0.20;;;0.20;;
10303;SDS011;5197;48.152;8.590;2023-11-19T12:31:37;1.60;;;0.30;;
10303;SDS011;5197;48.152;8.590;2023-11-19T12:34:11;0.37;;;0.30;;
10303;SDS011;5197;48.152;8.590;2023-11-19T12:36:39;0.50;;;0.23;;
10303;SDS011;5197;48.152;8.590;2023-11-19T12:39:07;0.53;;;0.30;;
10303;SDS011;5197;48.152;8.590;2023-11-19T12:41:48;1.43;;;0.50;;
10303;SDS011;5197;48.152;8.590;2023-11-19T12:44:16;0.33;;;0.30;;
10303;SDS011;5197;48.152;8.590;2023-11-19T12:46:43;3.70;;;0.70;;
10303;SDS011;5197;48.152;8.590;2023-11-19T12:49:11;0.93;;;0.40;;
10303;SDS011;5197;48.152;8.590;2023-11-19T12:51:38;0.50;;;0.37;;
10303;SDS011;5197;48.152;8.590;2023-11-19T12:54:05;0.40;;;0.40;;
10303;SDS011;5197;48.152;8.590;2023-11-19T12:56:32;0.40;;;0.40;;
10303;SDS011;5197;48.152;8.590;2023-11-19T12:59:17;0.57;;;0.30;;
10303;SDS011;5197;48.152;8.590;2023-11-19T13:01:55;0.50;;;0.50;;
10303;SDS011;5197;48.152;8.590;2023-11-19T13:04:29;0.37;;;0.37;;
10303;SDS011;5197;48.152;8.590;2023-11-19T13:07:00;0.37;;;0.37;;
10303;SDS011;5197;48.152;8.590;2023-11-19T13:09:31;0.40;;;0.27;;
10303;SDS011;5197;48.152;8.590;2023-11-19T13:11:59;0.67;;;0.20;;
10303;SDS011;5197;48.152;8.590;2023-11-19T13:14:36;0.23;;;0.20;;
10303;SDS011;5197;48.152;8.590;2023-11-19T13:17:15;0.30;;;0.30;;
10303;SDS011;5197;48.152;8.590;2023-11-19T13:19:42;1.43;;;0.37;;
10303;SDS011;5197;48.152;8.590;2023-11-19T13:22:09;2.00;;;0.40;;
10303;SDS011;5197;48.152;8.590;2023-11-19T13:24:36;0.20;;;0.20;;
10303;SDS011;5197;48.152;8.590;2023-11-19T13:27:04;0.40;;;0.23;;
10303;SDS011;5197;48.152;8.590;2023-11-19T13:29:31;0.10;;;0.10;;
10303;SDS011;5197;48.152;8.590;2023-11-19T13:32:00;0.90;;;0.20;;
10303;SDS011;5197;48.152;8.590;2023-11-19T13:34:27;0.30;;;0.30;;
10303;SDS011;5197;48.152;8.590;2023-11-19T13:36:54;0.20;;;0.20;;
10303;SDS011;5197;48.152;8.590;2023-11-19T13:39:21;0.77;;;0.10;;
10303;SDS011;5197;48.152;8.590;2023-11-19T13:41:50;0.50;;;0.40;;
10303;SDS011;5197;48.152;8.590;2023-11-19T13:44:17;0.70;;;0.40;;
10303;SDS011;5197;48.152;8.590;2023-11-19T13:46:45;0.43;;;0.20;;
10303;SDS011;5197;48.152;8.590;2023-11-19T13:49:13;0.20;;;0.20;;
10303;SDS011;5197;48.152;8.590;2023-11-19T13:51:42;0.20;;;0.20;;
10303;SDS011;5197;48.152;8.590;2023-11-19T13:54:09;0.30;;;0.30;;
10303;SDS011;5197;48.152;8.590;2023-11-19T13:56:36;0.23;;;0.20;;
10303;SDS011;5197;48.152;8.590;2023-11-19T13:59:03;0.33;;;0.20;;
10303;SDS011;5197;48.152;8.590;2023-11-19T14:01:32;0.30;;;0.30;;
10303;SDS011;5197;48.152;8.590;2023-11-19T14:03:59;0.40;;;0.30;;
10303;SDS011;5197;48.152;8.590;2023-11-19T14:06:27;0.30;;;0.30;;
10303;SDS011;5197;48.152;8.590;2023-11-19T14:08:54;0.10;;;0.10;;
10303;SDS011;5197;48.152;8.590;2023-11-19T14:11:21;0.30;;;0.30;;
10303;SDS011;5197;48.152;8.590;2023-11-19T14:13:48;0.70;;;0.30;;
10303;SDS011;5197;48.152;8.590;2023-11-19T14:16:16;0.43;;;0.43;;
10303;SDS011;5197;48.152;8.590;2023-11-19T14:18:43;0.13;;;0.13;;
10303;SDS011;5197;48.152;8.590;2023-11-19T14:21:10;0.23;;;0.20;;
10303;SDS011;5197;48.152;8.590;2023-11-19T14:23:39;0.30;;;0.30;;
10303;SDS011;5197;48.152;8.590;2023-11-19T14:26:06;0.43;;;0.40;;
10303;SDS011;5197;48.152;8.590;2023-11-19T14:28:33;0.37;;;0.10;;
10303;SDS011;5197;48.152;8.590;2023-11-19T14:31:00;0.20;;;0.20;;
10303;SDS011;5197;48.152;8.590;2023-11-19T14:33:28;0.23;;;0.23;;
10303;SDS011;5197;48.152;8.590;2023-11-19T14:35:55;0.27;;;0.27;;
10303;SDS011;5197;48.152;8.590;2023-11-19T14:38:22;1.07;;;0.40;;
10303;SDS011;5197;48.152;8.590;2023-11-19T14:40:49;1.23;;;0.40;;
10303;SDS011;5197;48.152;8.590;2023-11-19T14:43:16;0.40;;;0.40;;
10303;SDS011;5197;48.152;8.590;2023-11-19T14:45:43;0.77;;;0.50;;
10303;SDS011;5197;48.152;8.590;2023-11-19T14:48:16;1.47;;;0.43;;
10303;SDS011;5197;48.152;8.590;2023-11-19T14:50:44;1.57;;;0.50;;
10303;SDS011;5197;48.152;8.590;2023-11-19T14:53:12;0.40;;;0.40;;
10303;SDS011;5197;48.152;8.590;2023-11-19T14:55:39;0.60;;;0.50;;
10303;SDS011;5197;48.152;8.590;2023-11-19T14:58:09;0.97;;;0.80;;
10303;SDS011;5197;48.152;8.590;2023-11-19T15:00:40;0.43;;;0.40;;
10303;SDS011;5197;48.152;8.590;2023-11-19T15:03:07;1.77;;;0.90;;
10303;SDS011;5197;48.152;8.590;2023-11-19T15:05:35;0.60;;;0.60;;
10303;SDS011;5197;48.152;8.590;2023-11-19T15:08:02;1.10;;;1.10;;
10303;SDS011;5197;48.152;8.590;2023-11-19T15:10:30;1.37;;;1.30;;
10303;SDS011;5197;48.152;8.590;2023-11-19T15:12:57;2.47;;;0.90;;
10303;SDS011;5197;48.152;8.590;2023-11-19T15:15:24;1.77;;;1.60;;
10303;SDS011;5197;48.152;8.590;2023-11-19T15:17:54;0.60;;;0.60;;
10303;SDS011;5197;48.152;8.590;2023-11-19T15:20:22;0.93;;;0.77;;
10303;SDS011;5197;48.152;8.590;2023-11-19T15:22:49;2.03;;;0.73;;
10303;SDS011;5197;48.152;8.590;2023-11-19T15:25:16;0.70;;;0.63;;
10303;SDS011;5197;48.152;8.590;2023-11-19T15:27:43;1.87;;;1.33;;